CheckWX is a tool to help pilots better visualize weather data.  It is not intended as a substitute for an official pre-flight weather briefing.

18:05:27 UTC

NSTU METAR
Pago Pago International Airport
Pago Pago, American Samoa
Current

15 mins ago

NSTU 181750Z VRB02KT 12SM FEW022 BKN100 OVC200 25/24 A2986 RMK SLP112 60000 8/128 T02490235 10256 20249 52008
Observed
Jul-18 @ 17:50 UTC
Wind
  • Variable at 2 KTS
Visibility
19,300 meters
Flight Rules
VFR
Cloud Levels
  • Few at 2,200' AGL
  • Broken at 10,000' AGL
  • Overcast at 20,000' AGL
Temperature
25°C / 77°F
Dewpoint
24°C / 75°F
Humidity
94%
Altimeter
29.86" Hg
Pressure
1011.22 hPa
Previous

1 hour ago

NSTU 181650Z VRB02KT 10SM FEW022 BKN100 OVC200 25/24 A2984 RMK SLP105 T02490235
Observed
Jul-18 @ 16:50 UTC
Wind
  • Variable at 2 KTS
Visibility
16,100 meters
Flight Rules
VFR
Cloud Levels
  • Few at 2,200' AGL
  • Broken at 10,000' AGL
  • Overcast at 20,000' AGL
Temperature
25°C / 77°F
Dewpoint
24°C / 75°F
Humidity
94%
Altimeter
29.84" Hg
Pressure
1010.52 hPa
Previous

2 hours ago

NSTU 181550Z VRB02KT 10SM FEW022 BKN100 OVC200 25/24 A2982 RMK SLP100 T02500236
Observed
Jul-18 @ 15:50 UTC
Wind
  • Variable at 2 KTS
Visibility
16,100 meters
Flight Rules
VFR
Cloud Levels
  • Few at 2,200' AGL
  • Broken at 10,000' AGL
  • Overcast at 20,000' AGL
Temperature
25°C / 77°F
Dewpoint
24°C / 75°F
Humidity
94%
Altimeter
29.82" Hg
Pressure
1009.82 hPa